createdAt,value
2024-04-22T00:00:10.183Z,65.40
2024-04-22T00:02:36.895Z,65.85
2024-04-22T00:05:03.796Z,66.21
2024-04-22T00:07:30.416Z,66.79
2024-04-22T00:09:56.989Z,66.37
2024-04-22T00:12:23.637Z,67.89
2024-04-22T00:14:52.763Z,67.72
2024-04-22T00:17:19.393Z,68.13
2024-04-22T00:19:46.041Z,67.21
2024-04-22T00:22:13.690Z,67.83
2024-04-22T00:24:40.404Z,68.14
2024-04-22T00:27:07.260Z,67.82
2024-04-22T00:29:33.874Z,68.14
2024-04-22T00:32:00.536Z,69.46
2024-04-22T00:34:27.188Z,69.34
2024-04-22T00:36:53.806Z,70.24
2024-04-22T00:39:20.418Z,69.59
2024-04-22T00:41:47.042Z,70.62
2024-04-22T00:44:13.936Z,70.24
2024-04-22T00:46:40.804Z,70.83
2024-04-22T00:49:07.972Z,70.65
2024-04-22T00:51:34.960Z,70.04
2024-04-22T00:54:02.455Z,69.99
2024-04-22T00:56:30.286Z,70.64
2024-04-22T00:58:59.722Z,70.77
2024-04-22T01:01:28.931Z,70.84
2024-04-22T01:03:55.744Z,70.41
2024-04-22T01:06:22.402Z,70.21
2024-04-22T01:08:48.988Z,70.23
2024-04-22T01:11:15.644Z,71.36
2024-04-22T01:13:42.407Z,72.21
2024-04-22T01:16:09.086Z,72.32
2024-04-22T01:18:35.617Z,70.37
2024-04-22T01:21:02.374Z,72.25
2024-04-22T01:23:29.287Z,73.52
2024-04-22T01:25:57.617Z,72.37
2024-04-22T01:28:24.607Z,72.16
2024-04-22T01:30:51.378Z,72.36
2024-04-22T01:33:18.080Z,71.90
2024-04-22T01:35:44.834Z,71.71
2024-04-22T01:38:11.523Z,71.35
2024-04-22T01:40:38.294Z,71.11
2024-04-22T01:43:05.122Z,70.90
2024-04-22T01:45:31.788Z,70.49
2024-04-22T01:47:58.772Z,70.33
2024-04-22T01:50:25.533Z,70.68
2024-04-22T01:52:52.206Z,71.56
2024-04-22T01:55:18.839Z,70.68
2024-04-22T01:57:45.484Z,71.04
2024-04-22T02:00:12.245Z,71.47
2024-04-22T02:02:38.930Z,72.12
2024-04-22T02:05:06.694Z,71.81
2024-04-22T02:07:33.439Z,72.61
2024-04-22T02:10:08.915Z,72.32
2024-04-22T02:12:44.003Z,72.62
2024-04-22T02:15:10.502Z,72.79
2024-04-22T02:17:37.295Z,72.89
2024-04-22T02:20:04.545Z,72.90
2024-04-22T02:22:31.188Z,72.18
2024-04-22T02:24:57.759Z,72.40
2024-04-22T02:27:24.366Z,72.44
2024-04-22T02:29:50.954Z,72.71
2024-04-22T02:46:49.043Z,79.72
2024-04-22T02:49:15.775Z,77.79
2024-04-22T02:51:42.399Z,77.29
2024-04-22T02:54:08.931Z,76.81
2024-04-22T02:56:35.590Z,76.68
2024-04-22T02:59:02.298Z,77.22
2024-04-22T03:01:30.297Z,76.43
2024-04-22T03:03:57.068Z,76.25
2024-04-22T03:06:23.737Z,75.34
2024-04-22T03:08:51.087Z,74.96
2024-04-22T03:11:17.755Z,76.52
2024-04-22T03:13:44.933Z,77.28
2024-04-22T03:16:12.700Z,76.20
2024-04-22T03:18:39.417Z,75.86
2024-04-22T03:21:06.125Z,76.13
2024-04-22T03:23:32.777Z,75.97
2024-04-22T03:25:59.403Z,76.12
2024-04-22T03:28:25.963Z,75.97
2024-04-22T03:30:52.714Z,77.09
2024-04-22T03:33:21.586Z,77.06
2024-04-22T03:35:48.218Z,78.23
2024-04-22T03:38:16.378Z,76.53
2024-04-22T03:40:43.083Z,76.68
2024-04-22T03:43:11.965Z,77.51
2024-04-22T03:45:38.740Z,76.58
2024-04-22T03:48:24.039Z,75.79
2024-04-22T03:50:50.752Z,76.46
2024-04-22T03:53:18.247Z,76.47
2024-04-22T03:55:44.975Z,76.22
2024-04-22T03:58:11.670Z,76.18
2024-04-22T04:00:39.294Z,75.62
2024-04-22T04:03:06.016Z,75.32
2024-04-22T04:05:32.809Z,74.89
2024-04-22T04:07:59.591Z,75.02
2024-04-22T04:15:01.506Z,76.41
2024-04-22T04:17:28.214Z,76.86
2024-04-22T04:19:54.893Z,75.65
2024-04-22T04:22:21.513Z,76.21
2024-04-22T04:24:48.115Z,75.75
2024-04-22T04:27:17.069Z,77.23
2024-04-22T04:29:46.848Z,76.45
2024-04-22T04:32:13.552Z,76.06
2024-04-22T04:34:41.891Z,76.11
2024-04-22T04:37:08.654Z,75.26
2024-04-22T04:39:35.387Z,75.74
2024-04-22T04:42:01.941Z,75.65
2024-04-22T04:44:28.631Z,76.20
2024-04-22T04:46:55.317Z,75.78
2024-04-22T04:49:50.533Z,75.65
2024-04-22T04:52:17.338Z,75.05
2024-04-22T04:54:44.063Z,75.36
2024-04-22T04:57:10.889Z,76.34
2024-04-22T04:59:37.640Z,75.34
2024-04-22T05:25:34.185Z,76.92
2024-04-22T05:28:10.015Z,76.67
2024-04-22T05:31:15.190Z,74.86
2024-04-22T05:35:36.143Z,75.24
2024-04-22T05:37:48.211Z,76.74
2024-04-22T05:41:02.207Z,77.64
2024-04-22T05:53:54.969Z,71.88
2024-04-22T05:59:39.035Z,70.51
2024-04-22T06:02:08.777Z,68.86
2024-04-22T06:04:38.565Z,66.56
2024-04-22T06:07:05.270Z,68.08
2024-04-22T06:09:31.985Z,67.10
2024-04-22T06:12:15.118Z,68.60
2024-04-22T06:14:59.269Z,66.30
2024-04-22T06:22:18.406Z,64.64
2024-04-22T06:24:48.613Z,65.06
2024-04-22T06:27:55.080Z,64.39
2024-04-22T06:38:33.697Z,62.19
2024-04-22T06:41:37.079Z,63.05
2024-04-22T06:44:09.109Z,64.81
2024-04-22T07:00:07.020Z,62.97
2024-04-22T07:02:39.739Z,61.86
2024-04-22T07:05:12.504Z,61.40
2024-04-22T07:07:39.673Z,59.64
2024-04-22T07:14:23.943Z,60.24
2024-04-22T07:17:23.557Z,58.43
2024-04-22T07:19:54.897Z,59.66
2024-04-22T07:22:28.895Z,59.52
2024-04-22T07:25:04.047Z,58.81
2024-04-22T07:27:45.807Z,59.26
2024-04-22T07:30:18.142Z,60.62
2024-04-22T07:33:09.770Z,61.27
2024-04-22T07:39:54.199Z,59.81
2024-04-22T07:47:10.955Z,57.94
2024-04-22T07:49:37.949Z,59.39
2024-04-22T07:52:12.792Z,59.38
2024-04-22T07:54:40.015Z,56.21
2024-04-22T07:57:15.352Z,57.62
2024-04-22T07:59:42.327Z,57.49
2024-04-22T08:02:09.476Z,57.25
2024-04-22T08:04:36.533Z,57.21
2024-04-22T08:07:05.091Z,55.22
2024-04-22T08:09:32.276Z,56.22
2024-04-22T08:11:59.425Z,56.67
2024-04-22T08:14:26.152Z,57.65
2024-04-22T08:16:52.789Z,55.74
2024-04-22T08:19:19.589Z,54.00
2024-04-22T08:21:53.659Z,54.04
2024-04-22T08:24:22.417Z,54.64
2024-04-22T08:26:49.470Z,56.65
2024-04-22T08:29:19.320Z,54.71
2024-04-22T08:31:46.036Z,55.41
2024-04-22T08:34:12.746Z,56.20
2024-04-22T08:36:42.214Z,57.35
2024-04-22T08:39:11.132Z,57.58
2024-04-22T08:41:38.439Z,56.00
2024-04-22T08:44:05.387Z,55.92
2024-04-22T08:46:33.696Z,57.46
2024-04-22T08:49:00.852Z,54.20
2024-04-22T08:51:28.544Z,55.51
2024-04-22T08:53:55.552Z,54.81
2024-04-22T08:56:25.641Z,54.35
2024-04-22T08:58:52.835Z,54.67
2024-04-22T09:01:19.833Z,56.49
2024-04-22T09:03:46.666Z,58.15
2024-04-22T09:06:13.727Z,59.70
2024-04-22T09:08:48.878Z,59.76
2024-04-22T09:11:45.973Z,62.38
2024-04-22T09:14:05.071Z,61.41
2024-04-22T09:16:36.503Z,57.52
2024-04-22T09:19:04.164Z,57.79
2024-04-22T09:21:36.870Z,58.48
2024-04-22T09:24:04.125Z,57.82
2024-04-22T09:26:30.912Z,56.40
2024-04-22T09:28:59.870Z,55.49
2024-04-22T09:31:27.867Z,56.39
2024-04-22T09:34:05.955Z,55.92
2024-04-22T09:36:35.855Z,54.27
2024-04-22T09:39:02.713Z,54.83
2024-04-22T09:41:31.043Z,55.42
2024-04-22T09:44:03.088Z,53.47
2024-04-22T09:46:36.736Z,55.74
2024-04-22T09:49:05.622Z,56.39
2024-04-22T09:51:35.660Z,59.37
2024-04-22T09:54:02.498Z,59.99
2024-04-22T09:56:34.459Z,62.48
2024-04-22T09:59:07.210Z,62.80
2024-04-22T10:01:34.434Z,62.83
2024-04-22T10:04:02.301Z,63.03
2024-04-22T10:06:33.751Z,64.88
2024-04-22T10:09:01.232Z,66.97
2024-04-22T10:11:32.543Z,69.49
2024-04-22T10:14:10.242Z,71.94
2024-04-22T10:16:40.318Z,72.21
2024-04-22T10:19:09.201Z,77.90
2024-04-22T10:21:42.237Z,76.52
2024-04-22T10:24:09.009Z,76.09
2024-04-22T10:26:47.673Z,78.18
2024-04-22T10:29:19.004Z,76.35
2024-04-22T10:31:45.603Z,75.11
2024-04-22T10:34:12.427Z,75.89
2024-04-22T10:36:39.116Z,72.50
2024-04-22T10:39:05.754Z,73.21
2024-04-22T10:41:32.855Z,77.49
2024-04-22T10:43:59.599Z,80.09
2024-04-22T10:46:26.298Z,83.53
2024-04-22T10:48:53.196Z,82.04
2024-04-22T10:51:20.081Z,82.26
2024-04-22T10:53:55.844Z,77.28
2024-04-22T10:56:23.478Z,73.68
2024-04-22T10:58:52.043Z,74.96
2024-04-22T11:01:20.168Z,72.86
2024-04-22T11:03:47.288Z,70.48
2024-04-22T11:06:14.653Z,72.43
2024-04-22T11:08:42.723Z,71.12
2024-04-22T11:11:10.732Z,66.79
2024-04-22T11:13:38.896Z,66.67
2024-04-22T11:16:09.514Z,68.15
2024-04-22T11:18:37.144Z,68.33
2024-04-22T11:21:04.407Z,67.16
2024-04-22T11:23:31.950Z,66.17
2024-04-22T11:25:58.819Z,65.50
2024-04-22T11:28:25.774Z,62.56
2024-04-22T11:30:52.367Z,63.04
2024-04-22T11:33:19.969Z,61.99
2024-04-22T11:35:50.879Z,64.20
2024-04-22T11:38:22.035Z,61.77
2024-04-22T11:40:49.188Z,63.13
2024-04-22T11:43:20.990Z,61.47
2024-04-22T11:45:47.681Z,62.48
2024-04-22T11:48:14.269Z,62.38
2024-04-22T11:50:41.086Z,61.20
2024-04-22T11:53:15.055Z,61.56
2024-04-22T11:55:47.911Z,63.45
2024-04-22T11:58:15.033Z,63.32
2024-04-22T12:00:54.064Z,61.43
2024-04-22T12:03:20.812Z,61.09
2024-04-22T12:05:47.484Z,58.59
2024-04-22T12:08:14.224Z,61.25
2024-04-22T12:10:40.843Z,60.38
2024-04-22T12:13:07.658Z,58.13
2024-04-22T12:15:34.296Z,60.53
2024-04-22T12:21:11.069Z,56.68
2024-04-22T12:23:37.819Z,54.80
2024-04-22T12:26:04.453Z,52.36
2024-04-22T12:28:31.177Z,52.62
2024-04-22T12:30:57.866Z,55.02
2024-04-22T12:33:24.606Z,54.10
2024-04-22T12:35:51.409Z,53.07
2024-04-22T12:38:18.134Z,52.55
2024-04-22T12:40:45.072Z,54.34
2024-04-22T12:43:11.762Z,52.45
2024-04-22T12:45:42.788Z,56.97
2024-04-22T12:48:51.411Z,61.88
2024-04-22T12:51:18.079Z,64.11
2024-04-22T12:53:44.590Z,63.56
2024-04-22T12:56:11.584Z,66.40
2024-04-22T12:58:38.810Z,63.93
2024-04-22T13:01:06.393Z,64.55
2024-04-22T13:03:33.896Z,65.73
2024-04-22T13:06:01.125Z,64.94
2024-04-22T13:08:27.886Z,65.45
2024-04-22T13:10:54.770Z,65.31
2024-04-22T13:13:21.605Z,62.95
2024-04-22T13:15:48.341Z,62.53
2024-04-22T13:18:15.295Z,61.16
2024-04-22T13:21:13.123Z,60.49
2024-04-22T13:23:41.362Z,60.71
2024-04-22T13:26:08.411Z,61.63
2024-04-22T13:28:35.192Z,61.30
2024-04-22T13:31:02.266Z,59.41
2024-04-22T13:33:28.944Z,61.75
2024-04-22T13:35:55.643Z,62.97
2024-04-22T13:38:22.428Z,63.57
2024-04-22T13:40:49.127Z,62.71
2024-04-22T13:43:15.817Z,61.89
2024-04-22T13:45:42.425Z,60.42
2024-04-22T13:48:09.132Z,61.24
2024-04-22T13:50:35.834Z,61.38
2024-04-22T13:53:15.298Z,60.79
2024-04-22T13:55:49.153Z,60.66
2024-04-22T13:58:15.908Z,60.21
2024-04-22T14:00:42.899Z,59.34
2024-04-22T14:03:09.708Z,60.18
2024-04-22T14:05:37.565Z,59.07
2024-04-22T14:08:04.493Z,58.25
2024-04-22T14:10:31.139Z,59.13
2024-04-22T14:12:58.036Z,56.59
2024-04-22T14:15:44.395Z,56.81
2024-04-22T14:18:37.464Z,57.84
2024-04-22T14:21:04.383Z,57.71
2024-04-22T14:23:40.197Z,58.32
2024-04-22T14:26:06.939Z,59.64
2024-04-22T14:28:33.550Z,53.14
2024-04-22T14:31:00.367Z,55.98
2024-04-22T14:33:27.232Z,53.65
2024-04-22T14:35:54.110Z,54.05
2024-04-22T14:38:23.622Z,53.83
2024-04-22T14:40:50.482Z,54.00
2024-04-22T14:43:17.346Z,55.92
2024-04-22T14:45:43.958Z,59.25
2024-04-22T14:48:13.233Z,61.62
2024-04-22T14:50:40.044Z,67.37
2024-04-22T14:53:12.010Z,74.07
2024-04-22T14:55:39.564Z,77.99
2024-04-22T14:58:06.286Z,81.31
2024-04-22T15:00:33.383Z,84.36
2024-04-22T15:03:01.806Z,87.67
2024-04-22T15:05:31.740Z,89.40
2024-04-22T15:07:59.249Z,90.01
2024-04-22T15:10:26.075Z,90.28
2024-04-22T15:12:52.761Z,90.24
2024-04-22T15:15:19.569Z,87.18
2024-04-22T15:17:46.309Z,87.04
2024-04-22T15:20:12.987Z,84.95
2024-04-22T15:23:00.024Z,82.04
2024-04-22T15:25:26.832Z,80.97
2024-04-22T15:27:53.723Z,80.12
2024-04-22T15:34:10.100Z,79.29
2024-04-22T15:36:36.739Z,78.43
2024-04-22T15:39:04.002Z,77.36
2024-04-22T15:41:31.059Z,76.29
2024-04-22T15:43:57.831Z,75.13
2024-04-22T15:46:24.517Z,76.38
2024-04-22T15:48:53.498Z,76.14
2024-04-22T15:51:20.226Z,77.40
2024-04-22T15:53:46.818Z,77.61
2024-04-22T15:56:15.647Z,78.59
2024-04-22T15:58:43.153Z,78.52
2024-04-22T16:01:10.090Z,78.21
2024-04-22T16:03:36.963Z,76.18
2024-04-22T16:06:03.768Z,74.92
2024-04-22T16:08:32.340Z,68.93
2024-04-22T16:10:59.287Z,70.10
2024-04-22T16:13:26.042Z,70.72
2024-04-22T16:15:52.950Z,71.87
2024-04-22T16:18:20.024Z,71.46
2024-04-22T16:20:56.506Z,71.23
2024-04-22T16:23:31.862Z,71.05
2024-04-22T16:26:00.448Z,70.69
2024-04-22T16:28:27.383Z,70.49
2024-04-22T16:30:54.305Z,70.26
2024-04-22T16:33:21.057Z,70.63
2024-04-22T16:35:47.736Z,70.73
2024-04-22T16:38:14.470Z,70.34
2024-04-22T16:40:41.228Z,69.42
2024-04-22T16:43:09.036Z,70.07
2024-04-22T16:45:38.480Z,69.63
2024-04-22T16:48:05.656Z,71.26
2024-04-22T16:50:33.998Z,71.93
2024-04-22T16:53:00.909Z,71.11
2024-04-22T16:55:27.696Z,71.79
2024-04-22T16:57:54.698Z,70.87
2024-04-22T17:00:21.547Z,71.83
2024-04-22T17:02:48.470Z,71.03
2024-04-22T17:05:41.951Z,69.80
2024-04-22T17:08:08.650Z,73.29
2024-04-22T17:10:35.230Z,74.59
2024-04-22T17:13:01.924Z,78.09
2024-04-22T17:15:28.503Z,79.13
2024-04-22T17:17:55.275Z,80.27
2024-04-22T17:20:22.165Z,77.04
2024-04-22T17:22:48.963Z,76.11
2024-04-22T17:25:15.810Z,76.83
2024-04-22T17:27:42.986Z,78.48
2024-04-22T17:30:10.052Z,80.51
2024-04-22T17:32:36.836Z,77.77
2024-04-22T17:35:04.674Z,80.06
2024-04-22T17:37:31.857Z,80.47
2024-04-22T17:40:07.387Z,82.31
2024-04-22T17:42:34.104Z,82.29
2024-04-22T17:45:01.461Z,83.37
2024-04-22T17:47:28.221Z,85.10
2024-04-22T17:59:09.383Z,83.74
2024-04-22T18:01:45.636Z,84.91
2024-04-22T18:04:42.453Z,85.35
2024-04-22T18:17:03.744Z,86.01
2024-04-22T18:19:32.630Z,85.12
2024-04-22T18:32:44.308Z,86.03
2024-04-22T18:40:34.319Z,86.16
2024-04-22T18:50:34.015Z,86.39
2024-04-22T18:53:03.784Z,86.53
2024-04-22T18:55:32.532Z,86.73
2024-04-22T18:57:59.458Z,87.38
2024-04-22T19:00:26.552Z,86.58
2024-04-22T19:02:53.560Z,85.67
2024-04-22T19:06:08.645Z,85.60
2024-04-22T19:08:35.516Z,87.29
2024-04-22T19:12:03.054Z,87.54
2024-04-22T19:19:28.950Z,87.67
2024-04-22T19:24:06.741Z,88.72
2024-04-22T19:26:10.353Z,87.52
2024-04-22T19:28:39.973Z,87.96
2024-04-22T19:31:14.377Z,87.39
2024-04-22T19:48:36.709Z,89.31
2024-04-22T19:58:34.197Z,89.56
2024-04-22T20:01:20.415Z,88.89
2024-04-22T20:03:47.910Z,88.47
2024-04-22T20:06:14.934Z,88.42
2024-04-22T20:08:42.146Z,88.19
2024-04-22T20:11:09.410Z,88.78
2024-04-22T20:28:29.718Z,90.83
2024-04-22T21:02:06.240Z,93.05
2024-04-22T21:04:39.908Z,92.58
2024-04-22T21:07:13.191Z,91.28
2024-04-22T21:09:48.580Z,90.83
2024-04-22T21:15:03.974Z,91.54
2024-04-22T21:17:39.576Z,91.11
2024-04-22T21:20:07.284Z,92.01
2024-04-22T21:22:44.785Z,91.99
2024-04-22T21:25:11.539Z,92.43
2024-04-22T21:27:38.175Z,92.90
2024-04-22T21:30:15.953Z,92.37
2024-04-22T21:32:50.081Z,93.37
2024-04-22T21:35:16.972Z,93.38
2024-04-22T21:37:44.110Z,93.38
2024-04-22T21:40:15.165Z,92.99
2024-04-22T21:42:41.892Z,92.46
2024-04-22T21:45:08.642Z,92.63
2024-04-22T21:47:35.342Z,93.24
2024-04-22T21:50:03.627Z,92.67
2024-04-22T21:52:30.444Z,92.33
2024-04-22T21:54:57.429Z,93.07
2024-04-22T22:01:39.480Z,91.73
2024-04-22T22:04:43.881Z,92.12
2024-04-22T22:07:17.141Z,92.53
2024-04-22T22:09:48.942Z,92.57
2024-04-22T22:12:18.989Z,92.60
2024-04-22T22:14:47.276Z,92.80
2024-04-22T22:17:15.853Z,93.18
2024-04-22T22:19:43.657Z,92.16
2024-04-22T22:22:10.594Z,92.75
2024-04-22T22:24:42.086Z,92.73
2024-04-22T22:27:10.647Z,92.96
2024-04-22T22:29:37.948Z,91.96
2024-04-22T22:32:04.919Z,91.78
2024-04-22T22:34:32.479Z,92.01
2024-04-22T22:37:04.587Z,92.67
2024-04-22T22:39:32.156Z,93.39
2024-04-22T22:41:59.609Z,92.95
2024-04-22T22:44:27.083Z,93.29
2024-04-22T22:47:04.598Z,93.24
2024-04-22T22:49:31.654Z,92.94
2024-04-22T22:51:58.340Z,93.19
2024-04-22T22:54:25.049Z,94.50
2024-04-22T22:56:58.904Z,93.90
2024-04-22T22:59:25.950Z,94.95
2024-04-22T23:01:53.436Z,94.44
2024-04-22T23:04:20.257Z,94.36
2024-04-22T23:06:46.968Z,93.46
2024-04-22T23:09:14.155Z,93.38
2024-04-22T23:11:41.086Z,94.52
2024-04-22T23:14:07.818Z,93.85
2024-04-22T23:16:34.396Z,93.40
2024-04-22T23:19:01.102Z,94.33
2024-04-22T23:21:27.724Z,94.07
2024-04-22T23:23:54.439Z,93.96
2024-04-22T23:26:21.061Z,93.01
2024-04-22T23:28:52.639Z,93.01
2024-04-22T23:31:19.467Z,92.79
2024-04-22T23:34:01.415Z,92.02
2024-04-22T23:36:28.270Z,91.66
2024-04-22T23:39:52.942Z,91.14
2024-04-22T23:42:19.637Z,92.21
2024-04-22T23:44:46.202Z,91.65
2024-04-22T23:47:12.874Z,92.61
2024-04-22T23:49:39.518Z,91.64
2024-04-22T23:52:06.247Z,93.62
2024-04-22T23:54:32.787Z,92.54
2024-04-22T23:57:00.859Z,92.45
2024-04-22T23:59:28.096Z,91.66
